createdAt,value
2019-01-29T00:02:37.662Z,937.2
2019-01-29T00:05:43.705Z,937.1
2019-01-29T00:08:49.766Z,937
2019-01-29T00:11:55.722Z,937.1
2019-01-29T00:15:01.785Z,937.2
2019-01-29T00:18:07.662Z,937.2
2019-01-29T00:21:13.601Z,937.1
2019-01-29T00:24:19.559Z,937.1
2019-01-29T00:27:28.613Z,937.1
2019-01-29T00:30:34.558Z,937.2
2019-01-29T00:33:40.429Z,937.1
2019-01-29T00:36:46.370Z,937.1
2019-01-29T00:39:52.327Z,937.1
2019-01-29T00:42:58.288Z,937.1
2019-01-29T00:46:04.246Z,937.2
2019-01-29T00:49:13.382Z,937.3
2019-01-29T00:52:19.308Z,937.2
2019-01-29T00:55:25.300Z,937.3
2019-01-29T00:58:31.310Z,937.3
2019-01-29T01:01:37.194Z,937.4
2019-01-29T01:04:43.178Z,937.3
2019-01-29T01:07:49.137Z,937.3
2019-01-29T01:10:55.098Z,937.4
2019-01-29T01:14:00.978Z,937.5
2019-01-29T01:17:07.071Z,937.5
2019-01-29T01:20:12.944Z,937.5
2019-01-29T01:23:18.936Z,937.5
2019-01-29T01:26:24.894Z,937.5
2019-01-29T01:29:30.926Z,937.4
2019-01-29T01:32:36.846Z,937.4
2019-01-29T01:35:42.691Z,937.4
2019-01-29T01:38:48.630Z,937.5
2019-01-29T01:41:54.588Z,937.5
2019-01-29T01:45:00.478Z,937.5
2019-01-29T01:48:06.406Z,937.6
2019-01-29T01:51:12.519Z,937.5
2019-01-29T01:54:18.528Z,937.5
2019-01-29T01:57:24.410Z,937.5
2019-01-29T02:00:30.344Z,937.5
2019-01-29T02:03:36.331Z,937.6
2019-01-29T02:06:42.193Z,937.6
2019-01-29T02:09:48.127Z,937.6
2019-01-29T02:12:56.648Z,937.5
2019-01-29T02:16:02.603Z,937.5
2019-01-29T02:19:08.565Z,937.4
2019-01-29T02:22:14.514Z,937.4
2019-01-29T02:25:20.475Z,937.3
2019-01-29T02:28:26.355Z,937.4
2019-01-29T02:31:32.294Z,937.5
2019-01-29T02:34:38.170Z,937.5
2019-01-29T02:37:44.109Z,937.6
2019-01-29T02:40:50.172Z,937.6
2019-01-29T02:43:56.136Z,937.5
2019-01-29T02:47:02.195Z,937.4
2019-01-29T02:50:08.152Z,937.4
2019-01-29T02:53:19.639Z,937.3
2019-01-29T02:56:25.516Z,937.2
2019-01-29T02:59:31.454Z,937.2
2019-01-29T03:02:37.413Z,937.2
2019-01-29T03:05:43.297Z,937.2
2019-01-29T03:08:49.232Z,937.3
2019-01-29T03:11:55.291Z,937.4
2019-01-29T03:15:01.525Z,937.4
2019-01-29T03:18:07.448Z,937.4
2019-01-29T03:21:13.513Z,937.5
2019-01-29T03:24:19.501Z,937.4
2019-01-29T03:27:25.364Z,937.5
2019-01-29T03:30:31.628Z,937.5
2019-01-29T03:33:37.620Z,937.4
2019-01-29T03:36:43.590Z,937.3
2019-01-29T03:39:49.541Z,937.4
2019-01-29T03:42:55.505Z,937.4
2019-01-29T03:46:01.516Z,937.4
2019-01-29T03:49:07.396Z,937.5
2019-01-29T03:52:13.431Z,937.6
2019-01-29T03:55:19.346Z,937.6
2019-01-29T03:58:25.273Z,937.6
2019-01-29T04:01:31.260Z,937.5
2019-01-29T04:04:37.224Z,937.5
2019-01-29T04:07:43.185Z,937.4
2019-01-29T04:10:49.436Z,937.5
2019-01-29T04:13:55.777Z,937.5
2019-01-29T04:17:01.644Z,937.4
2019-01-29T04:20:07.628Z,937.4
2019-01-29T04:23:13.547Z,937.5
2019-01-29T04:26:19.547Z,937.6
2019-01-29T04:29:25.607Z,937.5
2019-01-29T04:32:31.667Z,937.5
2019-01-29T04:35:39.888Z,937.7
2019-01-29T04:38:48.716Z,937.8
2019-01-29T04:41:54.597Z,937.9
2019-01-29T04:45:00.727Z,937.8
2019-01-29T04:48:06.893Z,937.8
2019-01-29T04:51:12.854Z,937.8
2019-01-29T04:54:18.730Z,937.9
2019-01-29T04:57:24.667Z,937.8
2019-01-29T05:00:30.631Z,937.9
2019-01-29T05:03:36.512Z,937.9
2019-01-29T05:06:42.544Z,937.8
2019-01-29T05:09:48.504Z,937.8
2019-01-29T05:12:54.482Z,937.8
2019-01-29T05:16:00.533Z,937.9
2019-01-29T05:19:06.419Z,937.9
2019-01-29T05:22:12.453Z,938
2019-01-29T05:25:18.700Z,938.1
2019-01-29T05:28:24.595Z,938
2019-01-29T05:31:30.552Z,938.1
2019-01-29T05:34:36.518Z,938
2019-01-29T05:37:42.448Z,938
2019-01-29T05:40:48.327Z,938
2019-01-29T05:43:54.266Z,937.9
2019-01-29T05:47:00.205Z,937.9
2019-01-29T05:50:06.184Z,938
2019-01-29T05:53:12.242Z,938.1
2019-01-29T05:56:18.209Z,938.1
2019-01-29T05:59:24.273Z,938.1
2019-01-29T06:02:30.149Z,938.1
2019-01-29T06:05:36.205Z,938.2
2019-01-29T06:08:42.148Z,938.1
2019-01-29T06:11:48.029Z,938.4
2019-01-29T06:14:53.980Z,938.5
2019-01-29T06:17:59.959Z,938.4
2019-01-29T06:21:06.084Z,938.4
2019-01-29T06:24:12.154Z,938.4
2019-01-29T06:27:28.148Z,938.5
2019-01-29T06:30:34.212Z,938.5
2019-01-29T06:33:40.185Z,938.5
2019-01-29T06:36:46.171Z,938.5
2019-01-29T06:39:57.003Z,938.6
2019-01-29T06:43:03.090Z,938.5
2019-01-29T06:46:09.141Z,938.4
2019-01-29T06:49:15.273Z,938.4
2019-01-29T06:52:21.299Z,938.5
2019-01-29T06:55:27.804Z,938.6
2019-01-29T06:58:38.495Z,938.5
2019-01-29T07:01:44.464Z,938.5
2019-01-29T07:04:50.425Z,938.5
2019-01-29T07:07:56.487Z,938.6
2019-01-29T07:11:02.388Z,938.6
2019-01-29T07:14:08.407Z,938.5
2019-01-29T07:17:14.364Z,938.3
2019-01-29T07:20:20.518Z,938.3
2019-01-29T07:23:26.743Z,938.5
2019-01-29T07:26:32.761Z,938.6
2019-01-29T07:29:39.061Z,938.6
2019-01-29T07:32:46.215Z,938.6
2019-01-29T07:35:52.225Z,938.6
2019-01-29T07:38:58.150Z,938.6
2019-01-29T07:42:04.421Z,938.5
2019-01-29T07:45:10.479Z,938.5
2019-01-29T07:48:16.788Z,938.8
2019-01-29T07:51:22.945Z,938.8
2019-01-29T07:54:34.587Z,938.7
2019-01-29T07:57:41.436Z,938.7
2019-01-29T08:00:47.498Z,938.8
2019-01-29T08:03:53.390Z,938.8
2019-01-29T08:06:59.404Z,938.8
2019-01-29T08:10:05.282Z,938.8
2019-01-29T08:13:11.260Z,938.8
2019-01-29T08:16:17.162Z,939
2019-01-29T08:19:23.195Z,939
2019-01-29T08:22:29.093Z,939
2019-01-29T08:25:34.995Z,938.9
2019-01-29T08:28:50.069Z,938.9
2019-01-29T08:31:56.132Z,938.9
2019-01-29T08:35:02.094Z,939
2019-01-29T08:38:08.265Z,939
2019-01-29T08:41:14.266Z,939
2019-01-29T08:44:20.586Z,939
2019-01-29T08:47:26.651Z,939.1
2019-01-29T08:50:32.814Z,939
2019-01-29T08:53:39.906Z,939
2019-01-29T08:56:45.823Z,939.2
2019-01-29T08:59:51.925Z,939.2
2019-01-29T09:02:57.958Z,939.1
2019-01-29T09:06:03.954Z,939.3
2019-01-29T09:09:10.064Z,939.4
2019-01-29T09:12:16.253Z,939.3
2019-01-29T09:15:22.295Z,939.4
2019-01-29T09:18:29.339Z,939.4
2019-01-29T09:21:35.587Z,939.4
2019-01-29T09:24:41.647Z,939.5
2019-01-29T09:27:47.807Z,939.4
2019-01-29T09:30:53.890Z,939.4
2019-01-29T09:33:59.839Z,939.4
2019-01-29T09:37:06.020Z,939.5
2019-01-29T09:40:12.072Z,939.4
2019-01-29T09:43:18.125Z,939.4
2019-01-29T09:46:24.188Z,939.4
2019-01-29T09:49:31.215Z,939.4
2019-01-29T09:52:39.609Z,939.3
2019-01-29T09:55:45.753Z,939.2
2019-01-29T09:58:51.709Z,939.2
2019-01-29T10:01:57.682Z,939.2
2019-01-29T10:05:03.628Z,939.2
2019-01-29T10:08:09.596Z,939.2
2019-01-29T10:11:15.601Z,939.2
2019-01-29T10:14:21.473Z,939.1
2019-01-29T10:17:27.464Z,939.1
2019-01-29T10:20:33.446Z,939.1
2019-01-29T10:23:39.591Z,939
2019-01-29T10:26:45.466Z,938.9
2019-01-29T10:29:51.509Z,938.9
2019-01-29T10:32:58.407Z,938.8
2019-01-29T10:36:04.454Z,938.7
2019-01-29T10:39:10.533Z,938.8
2019-01-29T10:42:16.471Z,938.8
2019-01-29T10:45:22.527Z,938.8
2019-01-29T10:48:28.591Z,938.8
2019-01-29T10:51:34.755Z,938.7
2019-01-29T10:54:40.649Z,938.6
2019-01-29T10:57:46.774Z,938.6
2019-01-29T11:00:52.791Z,938.5
2019-01-29T11:03:58.802Z,938.5
2019-01-29T11:07:08.788Z,938.4
2019-01-29T11:10:14.715Z,938.5
2019-01-29T11:13:20.719Z,938.5
2019-01-29T11:16:26.790Z,938.5
2019-01-29T11:19:34.454Z,938.5
2019-01-29T11:22:40.519Z,938.5
2019-01-29T11:25:46.563Z,938.4
2019-01-29T11:29:01.219Z,938.4
2019-01-29T11:32:07.312Z,938.3
2019-01-29T11:35:13.404Z,938.3
2019-01-29T11:38:19.557Z,938.4
2019-01-29T11:41:26.647Z,938.3
2019-01-29T11:44:32.594Z,938.3
2019-01-29T11:47:38.773Z,938.3
2019-01-29T11:50:47.213Z,938.4
2019-01-29T11:53:53.254Z,938.3
2019-01-29T11:56:59.266Z,938.4
2019-01-29T12:00:05.285Z,938.4
2019-01-29T12:03:11.160Z,938.4
2019-01-29T12:06:17.176Z,938.5
2019-01-29T12:09:23.167Z,938.6
2019-01-29T12:12:29.273Z,938.5
2019-01-29T12:15:35.323Z,938.5
2019-01-29T12:18:41.433Z,938.6
2019-01-29T12:21:47.362Z,938.6
2019-01-29T12:24:53.240Z,938.5
2019-01-29T12:27:59.566Z,938.5
2019-01-29T12:31:05.533Z,938.6
2019-01-29T12:34:11.504Z,938.6
2019-01-29T12:37:17.553Z,938.5
2019-01-29T12:40:23.429Z,938.5
2019-01-29T12:43:29.485Z,938.5
2019-01-29T12:46:36.607Z,938.5
2019-01-29T12:49:42.771Z,938.5
2019-01-29T12:52:48.790Z,938.5
2019-01-29T12:55:55.817Z,938.5
2019-01-29T12:59:04.983Z,938.5
2019-01-29T13:02:11.032Z,938.4
2019-01-29T13:05:17.052Z,938.4
2019-01-29T13:08:23.282Z,938.4
2019-01-29T13:11:29.459Z,938.4
2019-01-29T13:14:36.448Z,938.5
2019-01-29T13:17:42.557Z,938.3
2019-01-29T13:20:48.446Z,938.5
2019-01-29T13:23:54.476Z,938.4
2019-01-29T13:27:00.347Z,938.4
2019-01-29T13:30:06.397Z,938.4
2019-01-29T13:33:15.176Z,938.5
2019-01-29T13:36:21.050Z,938.4
2019-01-29T13:39:27.103Z,938.4
2019-01-29T13:42:33.044Z,938.5
2019-01-29T13:45:39.105Z,938.5
2019-01-29T13:48:44.986Z,938.4
2019-01-29T13:51:51.035Z,938.5
2019-01-29T13:54:56.985Z,938.4
2019-01-29T13:58:03.267Z,938.5
2019-01-29T14:01:09.425Z,938.5
2019-01-29T14:04:15.406Z,938.6
2019-01-29T14:07:21.450Z,938.6
2019-01-29T14:10:27.354Z,938.6
2019-01-29T14:13:33.381Z,938.5
2019-01-29T14:16:39.350Z,938.6
2019-01-29T14:19:45.382Z,938.6
2019-01-29T14:22:51.334Z,938.6
2019-01-29T14:25:57.214Z,938.6
2019-01-29T14:29:03.282Z,938.6
2019-01-29T14:32:09.263Z,938.6
2019-01-29T14:35:15.431Z,938.7
2019-01-29T14:38:21.595Z,938.6
2019-01-29T14:41:27.604Z,938.6
2019-01-29T14:44:33.613Z,938.5
2019-01-29T14:47:39.644Z,938.5
2019-01-29T14:50:47.837Z,938.5
2019-01-29T14:53:53.881Z,938.4
2019-01-29T14:57:01.100Z,938.4
2019-01-29T15:00:07.173Z,938.4
2019-01-29T15:03:13.319Z,938.5
2019-01-29T15:06:19.200Z,938.3
2019-01-29T15:09:35.068Z,938.5
2019-01-29T15:12:42.200Z,938.4
2019-01-29T15:15:48.418Z,938.3
2019-01-29T15:18:54.529Z,938.3
2019-01-29T15:22:00.547Z,938.3
2019-01-29T15:25:06.451Z,938.4
2019-01-29T15:28:12.663Z,938.4
2019-01-29T15:31:18.548Z,938.4
2019-01-29T15:34:24.581Z,938.4
2019-01-29T15:37:30.463Z,938.5
2019-01-29T15:40:36.662Z,938.5
2019-01-29T15:43:42.676Z,938.5
2019-01-29T15:46:48.738Z,938.4
2019-01-29T15:49:54.893Z,938.4
2019-01-29T15:53:00.998Z,938.4
2019-01-29T15:56:06.962Z,938.4
2019-01-29T15:59:12.877Z,938.4
2019-01-29T16:02:19.059Z,938.4
2019-01-29T16:05:25.207Z,938.4
2019-01-29T16:08:31.237Z,938.4
2019-01-29T16:11:37.234Z,938.5
2019-01-29T16:14:44.903Z,938.4
2019-01-29T16:17:51.085Z,938.2
2019-01-29T16:20:57.148Z,938.4
2019-01-29T16:24:03.356Z,938.3
2019-01-29T16:27:09.197Z,938.3
2019-01-29T16:30:15.136Z,938.4
2019-01-29T16:33:21.098Z,938.3
2019-01-29T16:36:27.056Z,938.3
2019-01-29T16:39:32.987Z,938.3
2019-01-29T16:42:38.972Z,938.3
2019-01-29T16:45:44.935Z,938.4
2019-01-29T16:48:50.989Z,938.4
2019-01-29T16:51:56.876Z,938.4
2019-01-29T16:55:02.910Z,938.3
2019-01-29T16:58:08.872Z,938.3
2019-01-29T17:01:14.952Z,938.2
2019-01-29T17:04:20.812Z,938.2
2019-01-29T17:07:30.435Z,938.2
2019-01-29T17:10:36.327Z,938.3
2019-01-29T17:13:45.228Z,938.2
2019-01-29T17:16:51.103Z,938.3
2019-01-29T17:19:59.083Z,938.2
2019-01-29T17:23:05.148Z,938.3
2019-01-29T17:26:11.115Z,938.2
2019-01-29T17:29:17.199Z,938.2
2019-01-29T17:32:31.630Z,938.2
2019-01-29T17:35:37.592Z,938.3
2019-01-29T17:38:45.912Z,938.2
2019-01-29T17:41:51.789Z,938.2
2019-01-29T17:44:57.726Z,938.2
2019-01-29T17:48:03.754Z,938.1
2019-01-29T17:51:09.745Z,938.2
2019-01-29T17:54:15.625Z,938.2
2019-01-29T17:57:21.556Z,938.1
2019-01-29T18:00:27.549Z,938.1
2019-01-29T18:03:33.407Z,938.1
2019-01-29T18:06:39.543Z,938.1
2019-01-29T18:09:45.707Z,938
2019-01-29T18:12:51.585Z,938
2019-01-29T18:15:57.516Z,938
2019-01-29T18:19:03.475Z,938
2019-01-29T18:22:09.442Z,937.9
2019-01-29T18:25:15.397Z,938
2019-01-29T18:28:21.296Z,938
2019-01-29T18:31:27.221Z,937.9
2019-01-29T18:34:33.243Z,937.9
2019-01-29T18:37:39.233Z,938
2019-01-29T18:40:48.059Z,938
2019-01-29T18:43:54.180Z,938
2019-01-29T18:47:00.046Z,938
2019-01-29T18:50:06.039Z,937.9
2019-01-29T18:53:11.999Z,938
2019-01-29T18:56:21.091Z,937.9
2019-01-29T18:59:26.965Z,937.9
2019-01-29T19:02:33.058Z,937.9
2019-01-29T19:05:39.012Z,938
2019-01-29T19:08:45.108Z,937.9
2019-01-29T19:11:51.030Z,938
2019-01-29T19:14:59.791Z,938
2019-01-29T19:18:05.824Z,938
2019-01-29T19:21:11.700Z,937.9
2019-01-29T19:24:17.651Z,937.9
2019-01-29T19:27:23.721Z,937.9
2019-01-29T19:30:29.681Z,937.9
2019-01-29T19:33:35.727Z,937.8
2019-01-29T19:36:41.693Z,937.9
2019-01-29T19:39:47.648Z,937.9
2019-01-29T19:42:53.582Z,937.8
2019-01-29T19:45:59.562Z,937.7
2019-01-29T19:49:05.570Z,937.7
2019-01-29T19:52:11.595Z,937.7
2019-01-29T19:55:17.461Z,937.7
2019-01-29T19:58:33.226Z,937.8
2019-01-29T20:01:39.197Z,937.7
2019-01-29T20:04:45.174Z,937.7
2019-01-29T20:07:51.116Z,937.7
2019-01-29T20:10:57.173Z,937.7
2019-01-29T20:14:06.050Z,937.7
2019-01-29T20:17:11.921Z,937.7
2019-01-29T20:20:20.168Z,937.5
2019-01-29T20:23:26.129Z,937.6
2019-01-29T20:26:32.056Z,937.5
2019-01-29T20:29:38.156Z,937.4
2019-01-29T20:32:54.501Z,937.4
2019-01-29T20:36:00.515Z,937.3
2019-01-29T20:39:06.577Z,937.4
2019-01-29T20:42:12.639Z,937.2
2019-01-29T20:45:18.517Z,937.3
2019-01-29T20:48:24.456Z,937.3
2019-01-29T20:51:30.421Z,937.1
2019-01-29T20:54:36.374Z,937.2
2019-01-29T20:57:42.334Z,937.3
2019-01-29T21:00:48.404Z,937.2
2019-01-29T21:03:54.278Z,937.2
2019-01-29T21:07:00.318Z,937.2
2019-01-29T21:10:06.193Z,937
2019-01-29T21:13:12.235Z,937.1
2019-01-29T21:16:18.113Z,937.1
2019-01-29T21:19:24.051Z,937
2019-01-29T21:22:30.063Z,937
2019-01-29T21:25:36.021Z,937
2019-01-29T21:28:41.894Z,936.9
2019-01-29T21:31:47.908Z,936.9
2019-01-29T21:34:53.796Z,936.8
2019-01-29T21:38:00.736Z,936.8
2019-01-29T21:41:06.791Z,936.9
2019-01-29T21:44:15.569Z,936.8
2019-01-29T21:47:21.476Z,936.9
2019-01-29T21:50:27.437Z,936.8
2019-01-29T21:53:33.497Z,936.8
2019-01-29T21:56:39.384Z,936.8
2019-01-29T21:59:48.388Z,936.8
2019-01-29T22:02:54.352Z,936.7
2019-01-29T22:06:00.409Z,936.7
2019-01-29T22:09:06.371Z,936.8
2019-01-29T22:12:12.308Z,936.8
2019-01-29T22:15:18.298Z,936.8
2019-01-29T22:18:24.372Z,936.7
2019-01-29T22:21:30.289Z,936.7
2019-01-29T22:24:36.269Z,936.8
2019-01-29T22:27:42.147Z,936.8
2019-01-29T22:30:48.215Z,936.7
2019-01-29T22:33:54.073Z,936.7
2019-01-29T22:37:00.009Z,936.6
2019-01-29T22:40:06.072Z,936.6
2019-01-29T22:43:12.031Z,936.6
2019-01-29T22:46:18.068Z,936.5
2019-01-29T22:49:23.959Z,936.4
2019-01-29T22:52:29.905Z,936.3
2019-01-29T22:55:35.864Z,936.3
2019-01-29T22:58:41.824Z,936.2
2019-01-29T23:01:47.784Z,936.3
2019-01-29T23:04:53.662Z,936.3
2019-01-29T23:07:59.716Z,936.3
2019-01-29T23:11:05.770Z,936.3
2019-01-29T23:14:14.494Z,936.3
2019-01-29T23:17:20.455Z,936.3
2019-01-29T23:20:26.417Z,936.2
2019-01-29T23:23:32.371Z,936.2
2019-01-29T23:26:38.347Z,936.2
2019-01-29T23:29:45.015Z,936.3
2019-01-29T23:32:50.964Z,936.2
2019-01-29T23:35:56.926Z,936.1
2019-01-29T23:39:02.991Z,936.1
2019-01-29T23:42:08.955Z,936
2019-01-29T23:45:14.824Z,936
2019-01-29T23:48:20.871Z,936
2019-01-29T23:51:26.823Z,935.9
2019-01-29T23:54:32.705Z,935.9
2019-01-29T23:57:38.746Z,935.9
